sensor_id;sensor_type;location;lat;lon;timestamp;pressure;altitude;pressure_sealevel;temperature;humidity
26861;BME280;37676;46.956;7.430;2022-07-23T00:00:45;95365.41;;;27.67;48.73
26861;BME280;37676;46.956;7.430;2022-07-23T00:03:12;95375.50;;;27.58;49.08
26861;BME280;37676;46.956;7.430;2022-07-23T00:05:38;95244.16;;;26.63;48.88
26861;BME280;37676;46.956;7.430;2022-07-23T00:08:03;95368.16;;;27.36;48.84
26861;BME280;37676;46.956;7.430;2022-07-23T00:10:29;95399.75;;;27.57;48.88
26861;BME280;37676;46.956;7.430;2022-07-23T00:12:54;95397.50;;;27.56;48.85
26861;BME280;37676;46.956;7.430;2022-07-23T00:15:19;95375.19;;;27.54;48.57
26861;BME280;37676;46.956;7.430;2022-07-23T00:17:45;95340.19;;;27.34;49.03
26861;BME280;37676;46.956;7.430;2022-07-23T00:20:10;95342.44;;;27.36;48.81
26861;BME280;37676;46.956;7.430;2022-07-23T00:22:36;95345.28;;;27.46;48.68
26861;BME280;37676;46.956;7.430;2022-07-23T00:25:01;95351.47;;;27.42;48.73
26861;BME280;37676;46.956;7.430;2022-07-23T00:27:26;95349.94;;;27.41;48.61
26861;BME280;37676;46.956;7.430;2022-07-23T00:29:52;95340.06;;;27.32;48.73
26861;BME280;37676;46.956;7.430;2022-07-23T00:32:17;95366.69;;;27.35;48.83
26861;BME280;37676;46.956;7.430;2022-07-23T00:34:42;95364.28;;;27.31;49.20
26861;BME280;37676;46.956;7.430;2022-07-23T00:37:08;95205.88;;;26.27;48.97
26861;BME280;37676;46.956;7.430;2022-07-23T00:39:33;95323.06;;;27.06;48.74
26861;BME280;37676;46.956;7.430;2022-07-23T00:41:58;95352.81;;;27.22;48.92
26861;BME280;37676;46.956;7.430;2022-07-23T00:44:26;95346.34;;;27.21;48.68
26861;BME280;37676;46.956;7.430;2022-07-23T00:46:57;95340.47;;;27.19;49.07
26861;BME280;37676;46.956;7.430;2022-07-23T00:49:25;95342.47;;;27.17;49.22
26861;BME280;37676;46.956;7.430;2022-07-23T00:51:51;95332.97;;;27.14;49.51
26861;BME280;37676;46.956;7.430;2022-07-23T00:54:18;95306.97;;;27.01;49.11
26861;BME280;37676;46.956;7.430;2022-07-23T00:56:44;95317.63;;;27.10;49.45
26861;BME280;37676;46.956;7.430;2022-07-23T00:59:10;95318.25;;;27.08;49.34
26861;BME280;37676;46.956;7.430;2022-07-23T01:01:35;95308.91;;;27.08;49.28
26861;BME280;37676;46.956;7.430;2022-07-23T01:04:01;95305.50;;;27.00;49.49
26861;BME280;37676;46.956;7.430;2022-07-23T01:06:26;95308.50;;;27.02;49.65
26861;BME280;37676;46.956;7.430;2022-07-23T01:08:53;95306.25;;;27.00;49.73
26861;BME280;37676;46.956;7.430;2022-07-23T01:11:19;95306.09;;;26.98;49.69
26861;BME280;37676;46.956;7.430;2022-07-23T01:13:45;95116.50;;;25.77;49.63
26861;BME280;37676;46.956;7.430;2022-07-23T01:16:10;95246.09;;;26.60;49.90
26861;BME280;37676;46.956;7.430;2022-07-23T01:18:36;95307.59;;;26.90;49.87
26861;BME280;37676;46.956;7.430;2022-07-23T01:21:01;95177.13;;;25.87;50.07
26861;BME280;37676;46.956;7.430;2022-07-23T01:23:27;95323.69;;;26.85;50.19
26861;BME280;37676;46.956;7.430;2022-07-23T01:25:53;95329.84;;;26.82;50.55
26861;BME280;37676;46.956;7.430;2022-07-23T01:28:19;95338.69;;;26.76;50.84
26861;BME280;37676;46.956;7.430;2022-07-23T01:30:45;95057.78;;;24.81;50.59
26861;BME280;37676;46.956;7.430;2022-07-23T01:33:10;95164.47;;;25.52;50.70
26861;BME280;37676;46.956;7.430;2022-07-23T01:35:36;95340.91;;;26.59;50.66
26861;BME280;37676;46.956;7.430;2022-07-23T01:38:01;95359.81;;;26.64;50.95
26861;BME280;37676;46.956;7.430;2022-07-23T01:40:26;95380.72;;;26.66;50.84
26861;BME280;37676;46.956;7.430;2022-07-23T01:42:52;95389.88;;;26.65;51.18
26861;BME280;37676;46.956;7.430;2022-07-23T01:45:17;95081.63;;;24.59;51.12
26861;BME280;37676;46.956;7.430;2022-07-23T01:47:43;95226.06;;;25.47;51.37
26861;BME280;37676;46.956;7.430;2022-07-23T01:50:08;95390.03;;;26.57;51.16
26861;BME280;37676;46.956;7.430;2022-07-23T01:52:34;95403.69;;;26.59;51.10
26861;BME280;37676;46.956;7.430;2022-07-23T01:54:59;95472.66;;;26.65;52.60
26861;BME280;37676;46.956;7.430;2022-07-23T01:57:24;95561.66;;;26.71;53.48
26861;BME280;37676;46.956;7.430;2022-07-23T01:59:50;95529.59;;;26.63;54.15
26861;BME280;37676;46.956;7.430;2022-07-23T02:02:15;95491.06;;;26.44;54.11
26861;BME280;37676;46.956;7.430;2022-07-23T02:04:40;95466.56;;;26.41;53.91
26861;BME280;37676;46.956;7.430;2022-07-23T02:07:06;95406.03;;;26.33;53.92
26861;BME280;37676;46.956;7.430;2022-07-23T02:09:32;95338.44;;;26.26;54.04
26861;BME280;37676;46.956;7.430;2022-07-23T02:11:57;95328.03;;;26.12;53.79
26861;BME280;37676;46.956;7.430;2022-07-23T02:14:24;95386.78;;;26.24;53.85
26861;BME280;37676;46.956;7.430;2022-07-23T02:16:49;95413.78;;;26.23;54.39
26861;BME280;37676;46.956;7.430;2022-07-23T02:19:14;95418.00;;;26.22;54.03
26861;BME280;37676;46.956;7.430;2022-07-23T02:21:40;95410.31;;;26.25;53.82
26861;BME280;37676;46.956;7.430;2022-07-23T02:24:05;95402.69;;;26.27;53.71
26861;BME280;37676;46.956;7.430;2022-07-23T02:26:31;95231.44;;;25.17;53.52
26861;BME280;37676;46.956;7.430;2022-07-23T02:29:00;95406.63;;;26.32;53.69
26861;BME280;37676;46.956;7.430;2022-07-23T02:31:27;95393.66;;;26.21;53.60
26861;BME280;37676;46.956;7.430;2022-07-23T02:33:53;95414.59;;;26.33;53.62
26861;BME280;37676;46.956;7.430;2022-07-23T02:36:18;95421.78;;;26.34;53.95
26861;BME280;37676;46.956;7.430;2022-07-23T02:38:43;95428.84;;;26.33;54.38
26861;BME280;37676;46.956;7.430;2022-07-23T02:41:09;95428.69;;;26.31;54.57
26861;BME280;37676;46.956;7.430;2022-07-23T02:43:34;95414.25;;;26.29;54.20
26861;BME280;37676;46.956;7.430;2022-07-23T02:45:59;95410.81;;;26.31;54.39
26861;BME280;37676;46.956;7.430;2022-07-23T02:48:25;95413.50;;;26.29;54.42
26861;BME280;37676;46.956;7.430;2022-07-23T02:50:51;95379.50;;;26.04;54.58
26861;BME280;37676;46.956;7.430;2022-07-23T02:53:17;95392.16;;;26.20;54.22
26861;BME280;37676;46.956;7.430;2022-07-23T02:55:43;95428.53;;;26.29;54.90
26861;BME280;37676;46.956;7.430;2022-07-23T02:58:08;95396.59;;;26.04;55.00
26861;BME280;37676;46.956;7.430;2022-07-23T03:00:33;95408.34;;;26.18;54.80
26861;BME280;37676;46.956;7.430;2022-07-23T03:02:59;95422.50;;;26.25;54.63
26861;BME280;37676;46.956;7.430;2022-07-23T03:05:24;95420.09;;;26.22;54.88
26861;BME280;37676;46.956;7.430;2022-07-23T03:07:49;95410.59;;;26.19;54.95
26861;BME280;37676;46.956;7.430;2022-07-23T03:10:14;95397.56;;;26.16;55.02
26861;BME280;37676;46.956;7.430;2022-07-23T03:12:40;95325.88;;;26.03;54.69
26861;BME280;37676;46.956;7.430;2022-07-23T03:15:06;95319.03;;;26.06;54.97
26861;BME280;37676;46.956;7.430;2022-07-23T03:17:31;95305.47;;;25.97;55.05
26861;BME280;37676;46.956;7.430;2022-07-23T03:19:56;95236.59;;;25.28;55.93
26861;BME280;37676;46.956;7.430;2022-07-23T03:22:22;95380.72;;;26.11;56.14
26861;BME280;37676;46.956;7.430;2022-07-23T03:24:47;95406.06;;;26.07;56.14
26861;BME280;37676;46.956;7.430;2022-07-23T03:27:19;95397.16;;;26.03;56.16
26861;BME280;37676;46.956;7.430;2022-07-23T03:29:44;95391.72;;;25.97;55.73
26861;BME280;37676;46.956;7.430;2022-07-23T03:32:10;95391.44;;;25.93;55.73
26861;BME280;37676;46.956;7.430;2022-07-23T03:34:36;95386.44;;;25.84;55.38
26861;BME280;37676;46.956;7.430;2022-07-23T03:37:01;95407.00;;;25.92;55.69
26861;BME280;37676;46.956;7.430;2022-07-23T03:39:26;95110.34;;;23.92;55.61
26861;BME280;37676;46.956;7.430;2022-07-23T03:41:52;95405.09;;;25.95;55.55
26861;BME280;37676;46.956;7.430;2022-07-23T03:44:17;95403.56;;;25.94;55.57
26861;BME280;37676;46.956;7.430;2022-07-23T03:46:43;95106.47;;;23.97;55.27
26861;BME280;37676;46.956;7.430;2022-07-23T03:49:08;95401.47;;;25.94;55.15
26861;BME280;37676;46.956;7.430;2022-07-23T03:51:33;95333.41;;;25.45;55.24
26861;BME280;37676;46.956;7.430;2022-07-23T03:53:59;95400.56;;;25.92;55.34
26861;BME280;37676;46.956;7.430;2022-07-23T03:56:24;95409.88;;;25.92;55.58
26861;BME280;37676;46.956;7.430;2022-07-23T03:58:51;95249.47;;;24.76;55.69
26861;BME280;37676;46.956;7.430;2022-07-23T04:01:16;95412.81;;;25.85;55.29
26861;BME280;37676;46.956;7.430;2022-07-23T04:03:41;95420.38;;;25.90;55.61
26861;BME280;37676;46.956;7.430;2022-07-23T04:06:07;95421.88;;;25.91;55.88
26861;BME280;37676;46.956;7.430;2022-07-23T04:08:32;95436.72;;;25.89;55.53
26861;BME280;37676;46.956;7.430;2022-07-23T04:10:57;95422.84;;;25.76;55.90
26861;BME280;37676;46.956;7.430;2022-07-23T04:13:22;95468.06;;;25.89;55.94
26861;BME280;37676;46.956;7.430;2022-07-23T04:15:48;95493.75;;;25.89;55.98
26861;BME280;37676;46.956;7.430;2022-07-23T04:18:14;95207.78;;;23.85;56.12
26861;BME280;37676;46.956;7.430;2022-07-23T04:20:39;95513.19;;;25.83;55.94
26861;BME280;37676;46.956;7.430;2022-07-23T04:23:04;95521.41;;;25.79;56.13
26861;BME280;37676;46.956;7.430;2022-07-23T04:25:29;95508.34;;;25.76;56.09
26861;BME280;37676;46.956;7.430;2022-07-23T04:27:55;95486.31;;;25.77;56.06
26861;BME280;37676;46.956;7.430;2022-07-23T04:30:20;95472.63;;;25.75;56.44
26861;BME280;37676;46.956;7.430;2022-07-23T04:32:46;95450.25;;;25.72;56.07
26861;BME280;37676;46.956;7.430;2022-07-23T04:35:11;95447.22;;;25.70;56.25
26861;BME280;37676;46.956;7.430;2022-07-23T04:37:36;95438.69;;;25.70;56.06
26861;BME280;37676;46.956;7.430;2022-07-23T04:40:02;95448.00;;;25.70;56.18
26861;BME280;37676;46.956;7.430;2022-07-23T04:42:27;95451.00;;;25.72;56.16
26861;BME280;37676;46.956;7.430;2022-07-23T04:44:53;95475.47;;;25.75;56.25
26861;BME280;37676;46.956;7.430;2022-07-23T04:47:18;95476.06;;;25.74;56.15
26861;BME280;37676;46.956;7.430;2022-07-23T04:49:43;95482.38;;;25.72;55.90
26861;BME280;37676;46.956;7.430;2022-07-23T04:52:09;95424.91;;;25.32;55.89
26861;BME280;37676;46.956;7.430;2022-07-23T04:54:34;95446.94;;;25.31;56.16
26861;BME280;37676;46.956;7.430;2022-07-23T04:56:59;95315.22;;;24.63;56.34
26861;BME280;37676;46.956;7.430;2022-07-23T04:59:25;95473.81;;;25.72;56.17
26861;BME280;37676;46.956;7.430;2022-07-23T05:01:50;95493.94;;;25.74;56.14
26861;BME280;37676;46.956;7.430;2022-07-23T05:04:15;95470.81;;;25.53;56.48
26861;BME280;37676;46.956;7.430;2022-07-23T05:06:41;95490.56;;;25.68;56.67
26861;BME280;37676;46.956;7.430;2022-07-23T05:09:06;95522.59;;;25.76;56.73
26861;BME280;37676;46.956;7.430;2022-07-23T05:11:31;95522.00;;;25.78;57.00
26861;BME280;37676;46.956;7.430;2022-07-23T05:13:56;95534.75;;;25.77;56.66
26861;BME280;37676;46.956;7.430;2022-07-23T05:16:22;95538.34;;;25.77;56.99
26861;BME280;37676;46.956;7.430;2022-07-23T05:18:47;95541.03;;;25.75;57.46
26861;BME280;37676;46.956;7.430;2022-07-23T05:21:12;95540.72;;;25.71;57.28
26861;BME280;37676;46.956;7.430;2022-07-23T05:23:38;95520.59;;;25.69;57.26
26861;BME280;37676;46.956;7.430;2022-07-23T05:26:03;95533.50;;;25.70;57.19
26861;BME280;37676;46.956;7.430;2022-07-23T05:28:28;95507.34;;;25.64;57.21
26861;BME280;37676;46.956;7.430;2022-07-23T05:30:54;95509.53;;;25.73;57.11
26861;BME280;37676;46.956;7.430;2022-07-23T05:33:19;95507.84;;;25.70;56.71
26861;BME280;37676;46.956;7.430;2022-07-23T05:35:45;95514.06;;;25.76;57.05
26861;BME280;37676;46.956;7.430;2022-07-23T05:38:10;95323.69;;;24.53;56.95
26861;BME280;37676;46.956;7.430;2022-07-23T05:40:35;95499.81;;;25.76;56.78
26861;BME280;37676;46.956;7.430;2022-07-23T05:43:01;95431.94;;;25.31;57.04
26861;BME280;37676;46.956;7.430;2022-07-23T05:45:26;95504.56;;;25.74;56.93
26861;BME280;37676;46.956;7.430;2022-07-23T05:47:51;95520.59;;;25.69;57.25
26861;BME280;37676;46.956;7.430;2022-07-23T05:50:17;95495.81;;;25.45;57.24
26861;BME280;37676;46.956;7.430;2022-07-23T05:52:42;95511.28;;;25.52;57.51
26861;BME280;37676;46.956;7.430;2022-07-23T05:55:09;95507.38;;;25.47;57.43
26861;BME280;37676;46.956;7.430;2022-07-23T05:57:35;95512.41;;;25.39;57.19
26861;BME280;37676;46.956;7.430;2022-07-23T06:00:01;95566.88;;;25.60;57.36
26861;BME280;37676;46.956;7.430;2022-07-23T06:02:27;95575.94;;;25.49;58.27
26861;BME280;37676;46.956;7.430;2022-07-23T06:04:52;95603.06;;;25.50;58.36
26861;BME280;37676;46.956;7.430;2022-07-23T06:07:17;95630.56;;;25.55;58.54
26861;BME280;37676;46.956;7.430;2022-07-23T06:09:42;95631.72;;;25.52;58.24
26861;BME280;37676;46.956;7.430;2022-07-23T06:12:08;95460.53;;;24.40;57.99
26861;BME280;37676;46.956;7.430;2022-07-23T06:14:33;95505.63;;;24.68;57.98
26861;BME280;37676;46.956;7.430;2022-07-23T06:16:59;95555.66;;;25.20;58.06
26861;BME280;37676;46.956;7.430;2022-07-23T06:19:24;95571.81;;;25.42;58.35
26861;BME280;37676;46.956;7.430;2022-07-23T06:21:50;95568.19;;;25.42;58.31
26861;BME280;37676;46.956;7.430;2022-07-23T06:24:15;95538.25;;;25.33;58.07
26861;BME280;37676;46.956;7.430;2022-07-23T06:26:40;95358.56;;;24.12;57.97
26861;BME280;37676;46.956;7.430;2022-07-23T06:29:06;95565.34;;;25.42;57.83
26861;BME280;37676;46.956;7.430;2022-07-23T06:31:31;95547.53;;;25.17;57.88
26861;BME280;37676;46.956;7.430;2022-07-23T06:33:57;95545.44;;;25.17;57.95
26861;BME280;37676;46.956;7.430;2022-07-23T06:36:22;95591.91;;;25.44;58.01
26861;BME280;37676;46.956;7.430;2022-07-23T06:38:47;95594.94;;;25.46;57.95
26861;BME280;37676;46.956;7.430;2022-07-23T06:41:13;95271.34;;;23.16;57.68
26861;BME280;37676;46.956;7.430;2022-07-23T06:43:38;95592.69;;;25.45;57.72
26861;BME280;37676;46.956;7.430;2022-07-23T06:46:03;95456.47;;;24.50;58.05
26861;BME280;37676;46.956;7.430;2022-07-23T06:48:29;95583.25;;;25.35;57.78
26861;BME280;37676;46.956;7.430;2022-07-23T06:50:54;95551.16;;;25.17;58.05
26861;BME280;37676;46.956;7.430;2022-07-23T06:53:20;95600.81;;;25.48;57.98
26861;BME280;37676;46.956;7.430;2022-07-23T06:55:45;95396.88;;;24.11;58.08
26861;BME280;37676;46.956;7.430;2022-07-23T06:58:11;95605.56;;;25.46;57.90
26861;BME280;37676;46.956;7.430;2022-07-23T07:00:36;95584.75;;;25.36;58.14
26861;BME280;37676;46.956;7.430;2022-07-23T07:03:02;95432.34;;;24.34;57.70
26861;BME280;37676;46.956;7.430;2022-07-23T07:05:27;95612.78;;;25.47;57.94
26861;BME280;37676;46.956;7.430;2022-07-23T07:07:54;95611.63;;;25.50;57.84
26861;BME280;37676;46.956;7.430;2022-07-23T07:10:19;95610.13;;;25.49;58.13
26861;BME280;37676;46.956;7.430;2022-07-23T07:12:45;95570.06;;;25.22;58.27
26861;BME280;37676;46.956;7.430;2022-07-23T07:15:10;95620.56;;;25.46;58.35
26861;BME280;37676;46.956;7.430;2022-07-23T07:17:36;95616.97;;;25.46;58.05
26861;BME280;37676;46.956;7.430;2022-07-23T07:20:02;95599.53;;;25.42;58.35
26861;BME280;37676;46.956;7.430;2022-07-23T07:22:27;95457.09;;;24.41;58.37
26861;BME280;37676;46.956;7.430;2022-07-23T07:24:53;95606.75;;;25.43;58.42
26861;BME280;37676;46.956;7.430;2022-07-23T07:27:18;95591.41;;;25.38;58.65
26861;BME280;37676;46.956;7.430;2022-07-23T07:29:43;95611.44;;;25.48;58.25
26861;BME280;37676;46.956;7.430;2022-07-23T07:32:09;95606.00;;;25.42;58.28
26861;BME280;37676;46.956;7.430;2022-07-23T07:34:34;95607.03;;;25.55;58.21
26861;BME280;37676;46.956;7.430;2022-07-23T07:36:59;95604.50;;;25.59;58.41
26861;BME280;37676;46.956;7.430;2022-07-23T07:39:25;95601.22;;;25.62;58.28
26861;BME280;37676;46.956;7.430;2022-07-23T07:41:50;95611.47;;;25.65;58.45
26861;BME280;37676;46.956;7.430;2022-07-23T07:44:16;95558.59;;;25.30;58.36
26861;BME280;37676;46.956;7.430;2022-07-23T07:46:41;95284.75;;;23.55;58.06
26861;BME280;37676;46.956;7.430;2022-07-23T07:49:07;95508.50;;;25.10;58.56
26861;BME280;37676;46.956;7.430;2022-07-23T07:51:32;95606.75;;;25.77;58.56
26861;BME280;37676;46.956;7.430;2022-07-23T07:53:58;95607.09;;;25.81;58.66
26861;BME280;37676;46.956;7.430;2022-07-23T07:56:23;95610.13;;;25.83;58.59
26861;BME280;37676;46.956;7.430;2022-07-23T07:58:48;95594.38;;;25.65;58.99
26861;BME280;37676;46.956;7.430;2022-07-23T08:01:13;95619.59;;;25.86;58.93
26861;BME280;37676;46.956;7.430;2022-07-23T08:03:39;95606.09;;;25.86;59.21
26861;BME280;37676;46.956;7.430;2022-07-23T08:06:04;95600.81;;;25.83;59.20
26861;BME280;37676;46.956;7.430;2022-07-23T08:08:29;95610.81;;;25.91;59.24
26861;BME280;37676;46.956;7.430;2022-07-23T08:10:55;95608.13;;;25.93;59.17
26861;BME280;37676;46.956;7.430;2022-07-23T08:13:20;95617.41;;;25.94;58.97
26861;BME280;37676;46.956;7.430;2022-07-23T08:15:45;95464.44;;;24.94;59.09
26861;BME280;37676;46.956;7.430;2022-07-23T08:18:11;95619.84;;;25.97;59.13
26861;BME280;37676;46.956;7.430;2022-07-23T08:20:36;95596.03;;;25.85;58.93
26861;BME280;37676;46.956;7.430;2022-07-23T08:23:06;95604.25;;;25.98;58.84
26861;BME280;37676;46.956;7.430;2022-07-23T08:25:37;95457.06;;;25.08;58.74
26861;BME280;37676;46.956;7.430;2022-07-23T08:28:04;95590.16;;;26.00;59.28
26861;BME280;37676;46.956;7.430;2022-07-23T08:30:31;95590.91;;;26.01;59.15
26861;BME280;37676;46.956;7.430;2022-07-23T08:35:28;95465.94;;;24.95;59.26
26861;BME280;37676;46.956;7.430;2022-07-23T08:37:54;95615.66;;;25.98;59.41
26861;BME280;37676;46.956;7.430;2022-07-23T08:40:21;95621.34;;;25.98;59.41
26861;BME280;37676;46.956;7.430;2022-07-23T08:42:48;95308.41;;;23.82;59.77
26861;BME280;37676;46.956;7.430;2022-07-23T08:45:16;95620.84;;;25.92;59.88
26861;BME280;37676;46.956;7.430;2022-07-23T08:47:43;95576.75;;;25.59;60.08
26861;BME280;37676;46.956;7.430;2022-07-23T08:50:10;95617.66;;;25.88;60.16
26861;BME280;37676;46.956;7.430;2022-07-23T08:52:36;95620.69;;;25.90;59.98
26861;BME280;37676;46.956;7.430;2022-07-23T08:55:02;95640.63;;;25.90;59.92
26861;BME280;37676;46.956;7.430;2022-07-23T08:57:28;95618.69;;;26.00;61.07
26861;BME280;37676;46.956;7.430;2022-07-23T08:59:53;95606.25;;;25.88;60.97
26861;BME280;37676;46.956;7.430;2022-07-23T09:02:19;95626.03;;;25.86;60.80
26861;BME280;37676;46.956;7.430;2022-07-23T09:04:44;95630.94;;;25.93;60.37
26861;BME280;37676;46.956;7.430;2022-07-23T09:07:10;95436.97;;;24.72;60.58
26861;BME280;37676;46.956;7.430;2022-07-23T09:09:35;95424.22;;;24.73;60.45
26861;BME280;37676;46.956;7.430;2022-07-23T09:12:09;95606.00;;;25.94;60.19
26861;BME280;37676;46.956;7.430;2022-07-23T09:14:45;95285.91;;;23.77;59.90
26861;BME280;37676;46.956;7.430;2022-07-23T09:17:16;95594.69;;;25.86;60.05
26861;BME280;37676;46.956;7.430;2022-07-23T09:19:43;95606.59;;;25.92;59.67
26861;BME280;37676;46.956;7.430;2022-07-23T09:22:19;95594.84;;;25.88;59.61
26861;BME280;37676;46.956;7.430;2022-07-23T09:25:16;95607.03;;;25.89;59.79
26861;BME280;37676;46.956;7.430;2022-07-23T09:27:55;95616.16;;;25.87;59.79
26861;BME280;37676;46.956;7.430;2022-07-23T09:30:26;95598.03;;;25.75;59.70
26861;BME280;37676;46.956;7.430;2022-07-23T09:33:23;95593.34;;;25.87;59.83
26861;BME280;37676;46.956;7.430;2022-07-23T09:35:52;95577.09;;;25.80;59.34
26861;BME280;37676;46.956;7.430;2022-07-23T09:38:20;95600.81;;;26.00;60.03
26861;BME280;37676;46.956;7.430;2022-07-23T09:40:46;95582.94;;;25.99;59.83
26861;BME280;37676;46.956;7.430;2022-07-23T09:43:26;95577.06;;;25.97;59.86
26861;BME280;37676;46.956;7.430;2022-07-23T09:45:53;95576.06;;;26.02;59.74
26861;BME280;37676;46.956;7.430;2022-07-23T09:48:18;95437.50;;;25.12;59.66
26861;BME280;37676;46.956;7.430;2022-07-23T09:50:44;95592.25;;;26.17;59.76
26861;BME280;37676;46.956;7.430;2022-07-23T09:53:23;95576.56;;;26.08;59.35
26861;BME280;37676;46.956;7.430;2022-07-23T09:55:51;95590.97;;;26.27;59.62
26861;BME280;37676;46.956;7.430;2022-07-23T09:58:20;95593.41;;;26.31;59.40
26861;BME280;37676;46.956;7.430;2022-07-23T10:00:47;95594.31;;;26.33;59.57
26861;BME280;37676;46.956;7.430;2022-07-23T10:03:15;95291.63;;;24.35;59.13
26861;BME280;37676;46.956;7.430;2022-07-23T10:05:42;95593.47;;;26.40;59.37
26861;BME280;37676;46.956;7.430;2022-07-23T10:08:11;95594.13;;;26.49;59.21
26861;BME280;37676;46.956;7.430;2022-07-23T10:10:39;95600.28;;;26.55;59.05
26861;BME280;37676;46.956;7.430;2022-07-23T10:13:05;95415.34;;;25.37;59.37
26861;BME280;37676;46.956;7.430;2022-07-23T10:16:08;95580.31;;;26.55;59.32
26861;BME280;37676;46.956;7.430;2022-07-23T10:18:34;95437.34;;;25.71;59.49
26861;BME280;37676;46.956;7.430;2022-07-23T10:21:00;95600.94;;;26.80;59.15
26861;BME280;37676;46.956;7.430;2022-07-23T10:26:26;95595.84;;;26.88;59.05
26861;BME280;37676;46.956;7.430;2022-07-23T10:34:55;95542.28;;;26.79;59.45
26861;BME280;37676;46.956;7.430;2022-07-23T10:37:37;95585.56;;;27.11;58.99
26861;BME280;37676;46.956;7.430;2022-07-23T10:42:45;95584.56;;;27.26;59.07
26861;BME280;37676;46.956;7.430;2022-07-23T10:45:32;95428.75;;;26.14;59.12
26861;BME280;37676;46.956;7.430;2022-07-23T10:50:43;95554.91;;;27.21;59.25
26861;BME280;37676;46.956;7.430;2022-07-23T10:53:10;95579.22;;;27.49;59.10
26861;BME280;37676;46.956;7.430;2022-07-23T10:55:50;95578.31;;;27.56;58.80
26861;BME280;37676;46.956;7.430;2022-07-23T10:58:23;95577.84;;;27.60;58.71
26861;BME280;37676;46.956;7.430;2022-07-23T11:01:33;95592.31;;;27.62;58.45
26861;BME280;37676;46.956;7.430;2022-07-23T11:03:59;95586.13;;;27.65;58.45
26861;BME280;37676;46.956;7.430;2022-07-23T11:09:42;95584.22;;;27.77;57.99
26861;BME280;37676;46.956;7.430;2022-07-23T11:17:39;95585.13;;;27.80;57.56
26861;BME280;37676;46.956;7.430;2022-07-23T11:22:39;95578.94;;;27.83;57.26
26861;BME280;37676;46.956;7.430;2022-07-23T11:25:05;95576.66;;;27.82;57.26
26861;BME280;37676;46.956;7.430;2022-07-23T11:27:42;95581.06;;;27.92;57.57
26861;BME280;37676;46.956;7.430;2022-07-23T11:30:09;95586.78;;;27.92;57.55
26861;BME280;37676;46.956;7.430;2022-07-23T11:32:37;95588.59;;;27.97;57.51
26861;BME280;37676;46.956;7.430;2022-07-23T11:35:27;95585.28;;;28.01;57.59
26861;BME280;37676;46.956;7.430;2022-07-23T11:37:56;95588.31;;;28.03;57.83
26861;BME280;37676;46.956;7.430;2022-07-23T11:40:28;95551.84;;;27.84;57.51
26861;BME280;37676;46.956;7.430;2022-07-23T11:43:00;95583.19;;;28.11;57.65
26861;BME280;37676;46.956;7.430;2022-07-23T11:45:37;95582.13;;;28.16;57.71
26861;BME280;37676;46.956;7.430;2022-07-23T11:48:05;95578.97;;;28.21;57.89
26861;BME280;37676;46.956;7.430;2022-07-23T11:50:30;95581.66;;;28.29;58.20
26861;BME280;37676;46.956;7.430;2022-07-23T11:52:56;95572.91;;;28.37;57.87
26861;BME280;37676;46.956;7.430;2022-07-23T11:55:22;95490.72;;;27.89;57.58
26861;BME280;37676;46.956;7.430;2022-07-23T11:57:50;95581.75;;;28.50;57.58
26861;BME280;37676;46.956;7.430;2022-07-23T12:00:18;95578.31;;;28.52;57.13
26861;BME280;37676;46.956;7.430;2022-07-23T12:02:50;95578.31;;;28.52;56.66
26861;BME280;37676;46.956;7.430;2022-07-23T12:05:18;95568.38;;;28.53;56.65
26861;BME280;37676;46.956;7.430;2022-07-23T12:07:46;95572.41;;;28.59;56.71
26861;BME280;37676;46.956;7.430;2022-07-23T12:10:20;95582.22;;;28.66;56.52
26861;BME280;37676;46.956;7.430;2022-07-23T12:12:57;95566.81;;;28.71;56.46
26861;BME280;37676;46.956;7.430;2022-07-23T12:15:31;95542.63;;;28.53;56.29
26861;BME280;37676;46.956;7.430;2022-07-23T12:17:59;95564.38;;;28.77;55.86
26861;BME280;37676;46.956;7.430;2022-07-23T12:20:34;95549.47;;;28.69;55.41
26861;BME280;37676;46.956;7.430;2022-07-23T12:23:02;95306.38;;;27.02;55.69
26861;BME280;37676;46.956;7.430;2022-07-23T12:25:30;95552.75;;;28.84;55.74
26861;BME280;37676;46.956;7.430;2022-07-23T12:30:30;95549.28;;;28.86;55.70
26861;BME280;37676;46.956;7.430;2022-07-23T12:32:57;95418.63;;;28.00;55.41
26861;BME280;37676;46.956;7.430;2022-07-23T12:35:29;95559.13;;;29.04;55.69
26861;BME280;37676;46.956;7.430;2022-07-23T12:38:03;95555.94;;;29.09;55.40
26861;BME280;37676;46.956;7.430;2022-07-23T12:40:34;95549.19;;;29.05;55.49
26861;BME280;37676;46.956;7.430;2022-07-23T12:43:27;95503.94;;;28.73;55.10
26861;BME280;37676;46.956;7.430;2022-07-23T12:46:21;95288.44;;;27.30;54.86
26861;BME280;37676;46.956;7.430;2022-07-23T12:51:17;95515.97;;;28.81;54.79
26861;BME280;37676;46.956;7.430;2022-07-23T12:53:45;95490.28;;;28.62;54.58
26861;BME280;37676;46.956;7.430;2022-07-23T12:56:16;95568.75;;;29.18;54.30
26861;BME280;37676;46.956;7.430;2022-07-23T12:58:49;95557.56;;;29.22;54.42
26861;BME280;37676;46.956;7.430;2022-07-23T13:04:06;95557.38;;;29.29;54.06
26861;BME280;37676;46.956;7.430;2022-07-23T13:06:34;95307.34;;;27.64;53.84
26861;BME280;37676;46.956;7.430;2022-07-23T13:09:00;95559.16;;;29.35;53.94
26861;BME280;37676;46.956;7.430;2022-07-23T13:11:26;95525.91;;;29.20;53.74
26861;BME280;37676;46.956;7.430;2022-07-23T13:13:52;95565.78;;;29.37;53.26
26861;BME280;37676;46.956;7.430;2022-07-23T13:16:17;95551.16;;;29.33;52.76
26861;BME280;37676;46.956;7.430;2022-07-23T13:18:42;95555.41;;;29.32;52.37
26861;BME280;37676;46.956;7.430;2022-07-23T13:21:08;95556.88;;;29.33;52.25
26861;BME280;37676;46.956;7.430;2022-07-23T13:23:33;95540.34;;;29.22;52.32
26861;BME280;37676;46.956;7.430;2022-07-23T13:25:59;95561.41;;;29.36;52.43
26861;BME280;37676;46.956;7.430;2022-07-23T13:28:24;95552.97;;;29.38;52.68
26861;BME280;37676;46.956;7.430;2022-07-23T13:30:50;95551.72;;;29.41;52.05
26861;BME280;37676;46.956;7.430;2022-07-23T13:33:21;95546.41;;;29.47;51.57
26861;BME280;37676;46.956;7.430;2022-07-23T13:35:47;95552.28;;;29.49;50.95